createdAt,value
2022-12-03T00:00:36.880Z,52.82
2022-12-03T00:03:21.380Z,53.22
2022-12-03T00:05:50.037Z,53.40
2022-12-03T00:08:18.956Z,52.95
2022-12-03T00:10:49.074Z,53.30
2022-12-03T00:13:17.783Z,52.89
2022-12-03T00:15:46.207Z,53.13
2022-12-03T00:18:15.175Z,53.50
2022-12-03T00:20:43.648Z,53.49
2022-12-03T00:23:12.449Z,53.38
2022-12-03T00:25:40.912Z,53.91
2022-12-03T00:28:11.065Z,53.80
2022-12-03T00:30:39.704Z,52.96
2022-12-03T00:33:08.874Z,53.54
2022-12-03T00:35:37.389Z,52.55
2022-12-03T00:38:06.159Z,52.51
2022-12-03T00:40:35.056Z,52.62
2022-12-03T00:43:03.990Z,52.50
2022-12-03T00:45:33.767Z,52.76
2022-12-03T00:48:02.632Z,52.71
2022-12-03T00:50:31.155Z,53.04
2022-12-03T00:52:59.906Z,52.14
2022-12-03T00:55:28.420Z,52.89
2022-12-03T00:57:57.145Z,52.72
2022-12-03T01:00:25.718Z,53.52
2022-12-03T01:02:55.859Z,54.23
2022-12-03T01:05:24.271Z,54.11
2022-12-03T01:07:52.994Z,53.99
2022-12-03T01:10:22.570Z,54.78
2022-12-03T01:12:51.346Z,54.56
2022-12-03T01:15:19.985Z,55.02
2022-12-03T01:17:48.650Z,54.39
2022-12-03T01:20:18.521Z,54.50
2022-12-03T01:22:47.295Z,53.77
2022-12-03T01:25:16.256Z,54.71
2022-12-03T01:27:45.128Z,56.67
2022-12-03T01:30:14.645Z,55.02
2022-12-03T01:32:42.398Z,55.59
2022-12-03T01:35:10.864Z,55.35
2022-12-03T01:37:40.987Z,55.79
2022-12-03T01:40:13.347Z,56.14
2022-12-03T01:42:43.413Z,55.78
2022-12-03T01:45:15.172Z,54.99
2022-12-03T01:47:43.943Z,55.14
2022-12-03T01:50:19.434Z,54.66
2022-12-03T01:52:49.821Z,54.23
2022-12-03T01:55:22.213Z,54.06
2022-12-03T01:57:54.182Z,54.56
2022-12-03T02:00:24.713Z,54.29
2022-12-03T02:02:55.838Z,53.85
2022-12-03T02:05:27.318Z,54.04
2022-12-03T02:07:58.583Z,53.82
2022-12-03T02:10:29.689Z,54.05
2022-12-03T02:13:02.227Z,54.38
2022-12-03T02:15:30.752Z,54.78
2022-12-03T02:17:59.748Z,55.32
2022-12-03T02:20:28.848Z,55.30
2022-12-03T02:23:06.616Z,54.65
2022-12-03T02:25:37.973Z,54.74
2022-12-03T02:28:09.453Z,54.86
2022-12-03T02:30:38.395Z,54.46
2022-12-03T02:33:07.254Z,55.12
2022-12-03T02:35:37.252Z,55.62
2022-12-03T02:38:18.637Z,56.25
2022-12-03T02:40:51.173Z,55.59
2022-12-03T02:43:20.831Z,54.97
2022-12-03T02:45:52.935Z,54.79
2022-12-03T02:48:26.190Z,55.57
2022-12-03T02:50:56.907Z,55.07
2022-12-03T02:53:30.949Z,54.68
2022-12-03T02:56:02.866Z,55.46
2022-12-03T02:58:34.075Z,55.22
2022-12-03T03:01:05.087Z,54.83
2022-12-03T03:03:34.622Z,54.77
2022-12-03T03:06:04.651Z,54.19
2022-12-03T03:08:33.435Z,55.88
2022-12-03T03:11:03.715Z,55.91
2022-12-03T03:13:34.773Z,55.86
2022-12-03T03:16:03.899Z,56.48
2022-12-03T03:18:33.183Z,56.27
2022-12-03T03:21:01.991Z,56.02
2022-12-03T03:23:30.960Z,55.94
2022-12-03T03:26:02.888Z,57.07
2022-12-03T03:28:35.745Z,56.66
2022-12-03T03:31:06.381Z,57.46
2022-12-03T03:33:35.667Z,56.05
2022-12-03T03:36:04.121Z,55.84
2022-12-03T03:38:33.724Z,55.61
2022-12-03T03:41:04.349Z,55.96
2022-12-03T03:43:35.857Z,56.21
2022-12-03T03:46:05.967Z,56.25
2022-12-03T03:48:35.812Z,55.41
2022-12-03T03:51:08.963Z,54.89
2022-12-03T03:53:39.769Z,55.87
2022-12-03T03:56:09.838Z,54.58
2022-12-03T03:58:40.314Z,54.90
2022-12-03T04:01:09.842Z,54.82
2022-12-03T04:03:38.590Z,55.43
2022-12-03T04:06:07.574Z,54.59
2022-12-03T04:08:36.492Z,54.50
2022-12-03T04:11:22.655Z,54.73
2022-12-03T04:13:53.161Z,53.90
2022-12-03T04:16:21.592Z,54.73
2022-12-03T04:18:50.952Z,54.59
2022-12-03T04:21:38.318Z,54.18
2022-12-03T04:24:09.062Z,54.66
2022-12-03T04:26:55.367Z,54.44
2022-12-03T04:29:25.527Z,54.44
2022-12-03T04:32:12.070Z,54.39
2022-12-03T04:34:58.117Z,53.87
2022-12-03T04:37:26.653Z,54.57
2022-12-03T04:39:55.496Z,55.16
2022-12-03T04:42:24.279Z,54.36
2022-12-03T04:44:54.570Z,54.58
2022-12-03T04:47:23.447Z,54.66
2022-12-03T04:49:53.139Z,55.35
2022-12-03T04:52:22.418Z,55.82
2022-12-03T04:54:51.204Z,57.27
2022-12-03T04:57:19.776Z,57.28
2022-12-03T04:59:48.481Z,57.15
2022-12-03T05:02:18.660Z,56.45
2022-12-03T05:04:47.661Z,56.50
2022-12-03T05:07:16.079Z,58.34
2022-12-03T05:09:44.909Z,59.59
2022-12-03T05:12:13.331Z,58.25
2022-12-03T05:14:42.056Z,57.56
2022-12-03T05:17:10.528Z,58.19
2022-12-03T05:19:54.518Z,56.61
2022-12-03T05:22:22.919Z,56.12
2022-12-03T05:24:52.119Z,56.35
2022-12-03T05:27:23.860Z,55.88
2022-12-03T05:29:53.185Z,56.30
2022-12-03T05:32:22.096Z,58.17
2022-12-03T05:34:52.802Z,57.66
2022-12-03T05:37:21.547Z,57.55
2022-12-03T05:39:50.254Z,58.00
2022-12-03T05:42:35.913Z,58.15
2022-12-03T05:45:05.611Z,57.37
2022-12-03T05:47:34.419Z,58.01
2022-12-03T05:50:04.876Z,57.50
2022-12-03T05:52:33.472Z,56.82
2022-12-03T05:55:02.129Z,57.04
2022-12-03T05:57:30.580Z,59.52
2022-12-03T05:59:59.400Z,60.43
2022-12-03T06:02:27.922Z,61.50
2022-12-03T06:04:56.948Z,62.59
2022-12-03T06:07:26.892Z,63.15
2022-12-03T06:09:55.836Z,61.08
2022-12-03T06:12:24.244Z,61.36
2022-12-03T06:14:55.131Z,59.62
2022-12-03T06:17:23.787Z,59.14
2022-12-03T06:19:52.502Z,59.85
2022-12-03T06:22:21.399Z,59.79
2022-12-03T06:24:51.763Z,58.86
2022-12-03T06:27:20.428Z,58.60
2022-12-03T06:29:49.142Z,57.47
2022-12-03T06:32:17.640Z,57.68
2022-12-03T06:34:46.390Z,57.29
2022-12-03T06:37:14.783Z,57.42
2022-12-03T06:39:44.160Z,57.03
2022-12-03T06:42:14.010Z,56.85
2022-12-03T06:44:42.623Z,56.71
2022-12-03T06:47:11.088Z,57.50
2022-12-03T06:49:39.848Z,56.58
2022-12-03T06:52:08.357Z,57.30
2022-12-03T06:54:37.045Z,57.83
2022-12-03T06:57:05.504Z,56.59
2022-12-03T06:59:37.621Z,56.82
2022-12-03T07:02:06.268Z,57.40
2022-12-03T07:04:35.098Z,57.20
2022-12-03T07:07:03.549Z,58.54
2022-12-03T07:09:32.421Z,57.41
2022-12-03T07:12:00.792Z,56.58
2022-12-03T07:14:29.588Z,55.81
2022-12-03T07:16:59.322Z,55.35
2022-12-03T07:19:32.516Z,55.12
2022-12-03T07:22:01.914Z,55.32
2022-12-03T07:24:30.583Z,55.50
2022-12-03T07:26:58.957Z,56.48
2022-12-03T07:29:27.689Z,58.97
2022-12-03T07:31:56.167Z,57.84
2022-12-03T07:34:26.342Z,57.37
2022-12-03T07:36:54.878Z,56.74
2022-12-03T07:39:23.738Z,55.40
2022-12-03T07:41:52.223Z,55.10
2022-12-03T07:44:21.206Z,54.99
2022-12-03T07:46:49.693Z,54.12
2022-12-03T07:49:18.443Z,53.61
2022-12-03T07:51:54.083Z,54.05
2022-12-03T07:54:23.012Z,53.82
2022-12-03T07:56:54.348Z,56.63
2022-12-03T07:59:25.433Z,56.53
2022-12-03T08:01:54.165Z,57.88
2022-12-03T08:04:22.888Z,57.37
2022-12-03T08:06:52.789Z,56.83
2022-12-03T08:09:21.521Z,55.87
2022-12-03T08:11:50.466Z,55.87
2022-12-03T08:14:21.248Z,54.77
2022-12-03T08:16:49.974Z,54.25
2022-12-03T08:19:19.445Z,53.90
2022-12-03T08:21:47.808Z,54.27
2022-12-03T08:24:20.209Z,55.35
2022-12-03T08:26:50.317Z,55.37
2022-12-03T08:29:21.138Z,54.88
2022-12-03T08:31:52.233Z,53.96
2022-12-03T08:34:22.913Z,55.01
2022-12-03T08:36:53.545Z,54.73
2022-12-03T08:39:30.630Z,54.38
2022-12-03T08:42:27.602Z,53.22
2022-12-03T08:44:56.727Z,53.27
2022-12-03T08:47:26.286Z,53.32
2022-12-03T08:49:58.248Z,52.44
2022-12-03T08:52:33.400Z,52.04
2022-12-03T08:55:32.469Z,51.73
2022-12-03T08:58:01.507Z,51.97
2022-12-03T09:00:30.356Z,50.55
2022-12-03T09:03:02.219Z,51.85
2022-12-03T09:05:33.463Z,52.05
2022-12-03T09:08:02.083Z,51.25
2022-12-03T09:10:32.310Z,50.75
2022-12-03T09:13:00.744Z,50.33
2022-12-03T09:15:29.947Z,50.35
2022-12-03T09:17:58.415Z,50.18
2022-12-03T09:20:27.299Z,50.37
2022-12-03T09:22:55.797Z,50.84
2022-12-03T09:25:24.793Z,50.51
2022-12-03T09:27:54.602Z,51.52
2022-12-03T09:30:23.611Z,50.27
2022-12-03T09:32:52.154Z,50.55
2022-12-03T09:35:20.969Z,50.75
2022-12-03T09:37:49.407Z,50.80
2022-12-03T09:40:18.443Z,51.03
2022-12-03T09:42:47.469Z,50.91
2022-12-03T09:45:18.105Z,50.18
2022-12-03T09:47:48.898Z,51.07
2022-12-03T09:50:21.265Z,50.36
2022-12-03T09:52:51.076Z,50.12
2022-12-03T09:55:24.096Z,50.50
2022-12-03T09:57:53.571Z,50.00
2022-12-03T10:00:26.578Z,49.63
2022-12-03T10:02:58.701Z,49.86
2022-12-03T10:05:27.759Z,50.21
2022-12-03T10:08:04.469Z,50.07
2022-12-03T10:10:35.363Z,50.13
2022-12-03T10:13:04.835Z,50.66
2022-12-03T10:15:35.094Z,50.84
2022-12-03T10:18:17.143Z,50.26
2022-12-03T10:20:46.430Z,50.68
2022-12-03T10:23:21.694Z,51.12
2022-12-03T10:25:55.857Z,51.24
2022-12-03T10:28:34.029Z,50.37
2022-12-03T10:31:06.744Z,49.96
2022-12-03T10:33:37.736Z,50.35
2022-12-03T10:36:19.290Z,50.62
2022-12-03T10:38:47.933Z,50.77
2022-12-03T10:41:23.370Z,49.95
2022-12-03T10:43:51.867Z,49.27
2022-12-03T10:46:24.129Z,48.65
2022-12-03T10:49:11.184Z,48.13
2022-12-03T10:51:40.696Z,48.18
2022-12-03T10:54:18.963Z,48.48
2022-12-03T10:56:49.135Z,48.34
2022-12-03T10:59:21.042Z,48.60
2022-12-03T11:01:52.029Z,48.78
2022-12-03T11:04:23.820Z,49.14
2022-12-03T11:06:52.940Z,48.18
2022-12-03T11:09:26.264Z,48.18
2022-12-03T11:11:55.676Z,48.68
2022-12-03T11:15:06.352Z,48.41
2022-12-03T11:17:49.779Z,48.20
2022-12-03T11:20:55.491Z,48.33
2022-12-03T11:23:57.133Z,48.35
2022-12-03T11:27:08.528Z,48.24
2022-12-03T11:29:59.784Z,47.92
2022-12-03T11:33:07.644Z,47.74
2022-12-03T11:35:54.081Z,47.78
2022-12-03T11:38:53.345Z,47.88
2022-12-03T11:41:29.159Z,48.70
2022-12-03T11:44:31.661Z,47.85
2022-12-03T11:47:08.671Z,48.48
2022-12-03T11:49:40.261Z,47.98
2022-12-03T11:52:40.977Z,47.63
2022-12-03T11:55:18.463Z,48.58
2022-12-03T11:57:47.409Z,48.74
2022-12-03T12:00:22.534Z,48.94
2022-12-03T12:02:54.991Z,48.58
2022-12-03T12:05:32.551Z,48.48
2022-12-03T12:08:03.997Z,48.48
2022-12-03T12:10:45.495Z,48.92
2022-12-03T12:13:52.870Z,48.50
2022-12-03T12:16:45.788Z,48.24
2022-12-03T12:19:35.203Z,48.25
2022-12-03T12:22:30.535Z,48.34
2022-12-03T12:25:01.632Z,48.47
2022-12-03T12:27:35.998Z,49.13
2022-12-03T12:30:08.113Z,49.08
2022-12-03T12:32:45.927Z,48.54
2022-12-03T12:35:18.056Z,48.75
2022-12-03T12:37:58.133Z,48.64
2022-12-03T12:40:31.282Z,48.05
2022-12-03T12:43:08.252Z,48.08
2022-12-03T12:45:41.490Z,48.30
2022-12-03T12:48:18.304Z,49.05
2022-12-03T12:50:49.439Z,48.63
2022-12-03T12:53:23.776Z,49.50
2022-12-03T12:55:57.726Z,48.91
2022-12-03T12:58:27.948Z,48.46
2022-12-03T13:00:59.317Z,48.64
2022-12-03T13:03:30.767Z,47.82
2022-12-03T13:05:59.934Z,47.78
2022-12-03T13:08:31.913Z,47.56
2022-12-03T13:11:03.412Z,47.00
2022-12-03T13:13:41.791Z,46.55
2022-12-03T13:16:32.081Z,46.85
2022-12-03T13:19:01.788Z,46.24
2022-12-03T13:21:38.877Z,46.45
2022-12-03T13:24:37.336Z,46.70
2022-12-03T13:27:25.740Z,47.02
2022-12-03T13:29:57.465Z,46.92
2022-12-03T13:32:30.967Z,47.15
2022-12-03T13:35:05.158Z,46.83
2022-12-03T13:37:34.568Z,47.17
2022-12-03T13:40:21.355Z,46.51
2022-12-03T13:42:52.717Z,46.63
2022-12-03T13:45:32.463Z,46.05
2022-12-03T13:48:03.932Z,46.38
2022-12-03T13:50:37.320Z,46.72
2022-12-03T13:53:21.252Z,47.12
2022-12-03T13:55:51.871Z,47.03
2022-12-03T13:58:22.101Z,47.04
2022-12-03T14:00:50.998Z,47.25
2022-12-03T14:03:19.935Z,47.59
2022-12-03T14:05:48.457Z,47.37
2022-12-03T14:08:17.629Z,48.34
2022-12-03T14:10:46.207Z,48.58
2022-12-03T14:13:15.033Z,48.26
2022-12-03T14:15:44.962Z,49.03
2022-12-03T14:18:13.686Z,48.82
2022-12-03T14:20:42.357Z,48.59
2022-12-03T14:23:10.993Z,48.02
2022-12-03T14:25:39.423Z,49.43
2022-12-03T14:28:09.672Z,50.01
2022-12-03T14:30:38.187Z,49.03
2022-12-03T14:33:08.326Z,49.69
2022-12-03T14:35:37.340Z,49.74
2022-12-03T14:38:05.699Z,49.63
2022-12-03T14:40:35.004Z,49.95
2022-12-03T14:43:03.500Z,50.41
2022-12-03T14:45:32.247Z,50.70
2022-12-03T14:48:00.764Z,50.64
2022-12-03T14:50:30.878Z,50.81
2022-12-03T14:52:59.353Z,50.91
2022-12-03T14:55:28.163Z,51.60
2022-12-03T14:57:56.674Z,51.49
2022-12-03T15:00:25.654Z,50.92
2022-12-03T15:02:54.205Z,51.41
2022-12-03T15:05:28.495Z,50.78
2022-12-03T15:07:59.053Z,51.31
2022-12-03T15:10:27.809Z,52.10
2022-12-03T15:12:56.178Z,51.91
2022-12-03T15:15:24.825Z,51.43
2022-12-03T15:17:53.236Z,51.29
2022-12-03T15:20:21.914Z,50.38
2022-12-03T15:22:50.290Z,51.18
2022-12-03T15:25:24.574Z,50.78
2022-12-03T15:27:53.029Z,51.44
2022-12-03T15:30:21.746Z,51.97
2022-12-03T15:32:50.178Z,51.98
2022-12-03T15:35:18.967Z,52.20
2022-12-03T15:37:47.395Z,52.53
2022-12-03T15:40:16.348Z,52.59
2022-12-03T15:42:46.135Z,52.80
2022-12-03T15:45:15.450Z,53.45
2022-12-03T15:47:44.466Z,53.07
2022-12-03T15:50:14.260Z,54.56
2022-12-03T15:52:42.679Z,54.25
2022-12-03T15:55:12.203Z,53.96
2022-12-03T15:57:40.897Z,53.56
2022-12-03T16:00:14.420Z,53.75
2022-12-03T16:02:50.871Z,54.20
2022-12-03T16:05:21.525Z,54.14
2022-12-03T16:07:50.052Z,53.79
2022-12-03T16:10:21.473Z,53.77
2022-12-03T16:12:52.492Z,53.88
2022-12-03T16:15:27.039Z,53.78
2022-12-03T16:17:55.979Z,52.81
2022-12-03T16:20:24.791Z,52.91
2022-12-03T16:22:53.318Z,53.41
2022-12-03T16:25:22.089Z,53.14
2022-12-03T16:27:50.717Z,53.27
2022-12-03T16:30:19.731Z,53.49
2022-12-03T16:32:49.555Z,53.26
2022-12-03T16:35:18.556Z,53.01
2022-12-03T16:37:47.049Z,52.95
2022-12-03T16:40:15.932Z,52.76
2022-12-03T16:42:44.424Z,52.54
2022-12-03T16:45:31.224Z,53.48
2022-12-03T16:48:01.998Z,53.48
2022-12-03T16:50:31.006Z,53.61
2022-12-03T16:52:59.633Z,53.84
2022-12-03T16:55:28.326Z,53.49
2022-12-03T16:57:56.770Z,53.91
2022-12-03T17:00:26.349Z,53.97
2022-12-03T17:02:54.801Z,54.63
2022-12-03T17:05:25.028Z,54.90
2022-12-03T17:07:53.590Z,55.61
2022-12-03T17:10:22.372Z,56.74
2022-12-03T17:15:40.634Z,56.32
2022-12-03T17:18:10.004Z,56.64
2022-12-03T17:20:40.216Z,56.65
2022-12-03T17:23:08.965Z,56.30
2022-12-03T17:25:37.846Z,57.75
2022-12-03T17:28:06.591Z,57.54
2022-12-03T17:30:35.385Z,57.93
2022-12-03T17:33:04.124Z,57.27
2022-12-03T17:35:32.941Z,56.99
2022-12-03T17:38:03.090Z,57.37
2022-12-03T17:40:31.954Z,57.04
2022-12-03T17:43:00.421Z,57.15
2022-12-03T17:45:29.268Z,57.69
2022-12-03T17:47:57.666Z,57.51
2022-12-03T17:50:26.867Z,57.92
2022-12-03T17:52:55.262Z,57.57
2022-12-03T17:55:35.935Z,57.86
2022-12-03T17:58:07.343Z,57.36
2022-12-03T18:00:36.071Z,57.56
2022-12-03T18:03:04.913Z,58.19
2022-12-03T18:05:33.683Z,58.75
2022-12-03T18:08:02.312Z,58.28
2022-12-03T18:10:32.841Z,58.77
2022-12-03T18:13:02.424Z,58.91
2022-12-03T18:15:31.617Z,58.48
2022-12-03T18:18:00.275Z,58.64
2022-12-03T18:20:29.485Z,59.20
2022-12-03T18:22:59.180Z,59.86
2022-12-03T18:25:29.838Z,59.09
2022-12-03T18:27:59.955Z,59.50
2022-12-03T18:30:28.859Z,59.31
2022-12-03T18:32:57.474Z,58.70
2022-12-03T18:35:26.665Z,58.87
2022-12-03T18:37:55.395Z,58.25
2022-12-03T18:40:27.235Z,58.49
2022-12-03T18:42:57.195Z,57.84
2022-12-03T18:45:27.565Z,58.74
2022-12-03T18:47:56.809Z,58.25
2022-12-03T18:50:25.804Z,59.73
2022-12-03T18:52:54.455Z,58.67
2022-12-03T18:55:23.305Z,59.25
2022-12-03T18:57:51.970Z,59.02
2022-12-03T19:00:21.390Z,58.67
2022-12-03T19:03:06.590Z,59.28
2022-12-03T19:05:36.432Z,58.70
2022-12-03T19:08:12.574Z,58.65
2022-12-03T19:10:42.277Z,59.24
2022-12-03T19:13:10.938Z,58.20
2022-12-03T19:15:40.364Z,58.19
2022-12-03T19:18:10.216Z,59.31
2022-12-03T19:20:41.676Z,58.25
2022-12-03T19:23:11.454Z,58.60
2022-12-03T19:25:40.363Z,58.80
2022-12-03T19:28:09.096Z,58.17
2022-12-03T19:30:37.982Z,59.22
2022-12-03T19:33:06.520Z,59.84
2022-12-03T19:35:43.068Z,59.91
2022-12-03T19:38:11.767Z,59.14
2022-12-03T19:40:40.910Z,59.11
2022-12-03T19:43:09.421Z,58.81
2022-12-03T19:45:38.307Z,58.29
2022-12-03T19:48:07.058Z,58.67
2022-12-03T19:50:35.925Z,58.18
2022-12-03T19:53:05.916Z,59.17
2022-12-03T19:55:36.396Z,58.90
2022-12-03T19:58:04.991Z,59.69
2022-12-03T20:00:35.780Z,59.47
2022-12-03T20:03:04.827Z,59.14
2022-12-03T20:05:37.372Z,58.75
2022-12-03T20:08:08.383Z,59.41
2022-12-03T20:10:38.097Z,59.28
2022-12-03T20:13:06.746Z,59.79
2022-12-03T20:15:38.211Z,59.83
2022-12-03T20:18:07.002Z,60.33
2022-12-03T20:20:35.795Z,59.54
2022-12-03T20:23:04.324Z,59.41
2022-12-03T20:25:37.883Z,59.62
2022-12-03T20:28:06.617Z,59.60
2022-12-03T20:30:35.613Z,58.50
2022-12-03T20:33:04.090Z,58.29
2022-12-03T20:35:34.572Z,59.31
2022-12-03T20:38:03.134Z,58.57
2022-12-03T20:40:31.857Z,58.08
2022-12-03T20:43:01.839Z,58.84
2022-12-03T20:45:30.713Z,59.45
2022-12-03T20:47:59.240Z,58.62
2022-12-03T20:50:28.050Z,58.61
2022-12-03T20:53:22.735Z,58.56
2022-12-03T20:55:45.457Z,59.04
2022-12-03T20:58:15.475Z,59.22
2022-12-03T21:00:44.181Z,58.75
2022-12-03T21:03:12.687Z,59.38
2022-12-03T21:05:42.565Z,59.93
2022-12-03T21:08:11.072Z,59.11
2022-12-03T21:10:46.029Z,59.23
2022-12-03T21:13:18.056Z,59.38
2022-12-03T21:15:47.426Z,58.36
2022-12-03T21:18:18.559Z,59.26
2022-12-03T21:20:49.019Z,58.65
2022-12-03T21:23:17.633Z,58.08
2022-12-03T21:25:46.598Z,58.90
2022-12-03T21:28:16.381Z,59.14
2022-12-03T21:30:45.620Z,58.47
2022-12-03T21:33:14.031Z,58.83
2022-12-03T21:35:42.949Z,58.35
2022-12-03T21:38:11.440Z,58.79
2022-12-03T21:40:40.255Z,58.51
2022-12-03T21:43:08.789Z,58.12
2022-12-03T21:45:42.296Z,58.62
2022-12-03T21:48:10.858Z,58.52
2022-12-03T21:50:39.549Z,57.49
2022-12-03T21:53:08.796Z,57.62
2022-12-03T21:55:40.765Z,57.23
2022-12-03T21:58:10.374Z,57.70
2022-12-03T22:00:39.995Z,57.26
2022-12-03T22:03:09.941Z,57.47
2022-12-03T22:05:39.642Z,57.67
2022-12-03T22:08:08.377Z,57.06
2022-12-03T22:10:37.502Z,57.00
2022-12-03T22:13:06.754Z,56.64
2022-12-03T22:15:36.035Z,55.97
2022-12-03T22:18:04.873Z,57.05
2022-12-03T22:20:35.064Z,57.13
2022-12-03T22:23:03.612Z,56.39
2022-12-03T22:25:32.367Z,56.91
2022-12-03T22:28:00.962Z,57.67
2022-12-03T22:30:29.846Z,57.00
2022-12-03T22:32:58.269Z,56.98
2022-12-03T22:35:26.903Z,56.87
2022-12-03T22:37:56.726Z,56.60
2022-12-03T22:40:25.353Z,56.36
2022-12-03T22:42:53.783Z,56.73
2022-12-03T22:45:22.641Z,56.65
2022-12-03T22:47:51.096Z,56.73
2022-12-03T22:50:19.883Z,55.87
2022-12-03T22:52:48.288Z,57.51
2022-12-03T22:55:18.423Z,57.11
2022-12-03T22:57:46.883Z,56.58
2022-12-03T23:00:18.214Z,56.71
2022-12-03T23:02:46.816Z,57.13
2022-12-03T23:05:15.823Z,56.56
2022-12-03T23:07:44.240Z,56.61
2022-12-03T23:10:13.599Z,56.16
2022-12-03T23:12:43.366Z,56.45
2022-12-03T23:15:12.748Z,56.53
2022-12-03T23:17:41.247Z,57.16
2022-12-03T23:20:11.051Z,57.30
2022-12-03T23:22:39.517Z,57.31
2022-12-03T23:25:09.634Z,56.66
2022-12-03T23:27:38.005Z,57.49
2022-12-03T23:30:10.353Z,57.23
2022-12-03T23:32:38.863Z,56.58
2022-12-03T23:35:08.851Z,56.23
2022-12-03T23:37:37.435Z,56.80
2022-12-03T23:40:07.566Z,56.82
2022-12-03T23:42:36.230Z,56.40
2022-12-03T23:45:05.499Z,56.29
2022-12-03T23:47:35.369Z,57.17
2022-12-03T23:50:04.575Z,56.92
2022-12-03T23:52:33.011Z,56.51
2022-12-03T23:55:01.845Z,56.31
2022-12-03T23:57:30.374Z,57.08
2022-12-03T23:59:59.030Z,57.44
